Terminal Aerodrome Forecast
Issued by NWS Wilmington, OH

Current Version | Previous Version | Graphics & Text | Print | Product List | Glossary On
Versions: 1 2 3 4 5 6 7 8 9 10 11 12 13 14 15 16 17 18 19 20 21 22 23
375
FTUS41 KILN 211729
TAFILN
TAF
KILN 211729Z 2118/2218 22007KT P6SM OVC180
     FM212300 19004KT P6SM VCSH SCT035 OVC090
      TEMPO 2123/2203 5SM -SHRA OVC025
     FM220400 VRB03KT 5SM BR VCSH BKN025 OVC035
     FM220800 VRB03KT 2SM BR VCSH OVC010
     FM220900 VRB03KT 3/4SM BR OVC007
     FM221400 20004KT 3SM BR OVC007
     FM221500 20004KT P6SM BKN007
     FM221700 20005KT P6SM BKN010=

USA.gov is the U.S. government's official web portal to all federal, state and local government web resources and services.